createdAt,value
2019-05-17T00:01:23.051Z,89.69
2019-05-17T00:03:53.899Z,89.53
2019-05-17T00:06:24.725Z,89.26
2019-05-17T00:08:56.452Z,89.34
2019-05-17T00:11:27.525Z,89.21
2019-05-17T00:13:58.356Z,89.55
2019-05-17T00:16:29.305Z,89.22
2019-05-17T00:19:00.131Z,89.31
2019-05-17T00:21:31.094Z,89.09
2019-05-17T00:24:01.498Z,89.01
2019-05-17T00:26:32.383Z,88.79
2019-05-17T00:29:03.545Z,88.91
2019-05-17T00:31:34.007Z,88.83
2019-05-17T00:34:07.132Z,88.60
2019-05-17T00:36:37.656Z,88.90
2019-05-17T00:39:08.597Z,89.03
2019-05-17T00:41:39.433Z,89.08
2019-05-17T00:44:10.374Z,88.89
2019-05-17T00:46:40.801Z,88.98
2019-05-17T00:49:11.673Z,88.91
2019-05-17T00:51:42.545Z,88.76
2019-05-17T00:54:13.171Z,89.05
2019-05-17T00:56:46.349Z,89.06
2019-05-17T00:59:17.243Z,89.00
2019-05-17T01:01:49.730Z,88.99
2019-05-17T01:04:20.854Z,88.81
2019-05-17T01:06:51.982Z,88.60
2019-05-17T01:09:22.971Z,88.65
2019-05-17T01:11:53.925Z,88.55
2019-05-17T01:14:26.564Z,88.67
2019-05-17T01:16:57.179Z,88.78
2019-05-17T01:19:28.014Z,88.96
2019-05-17T01:21:58.939Z,88.65
2019-05-17T01:24:29.795Z,89.46
2019-05-17T01:27:00.735Z,89.74
2019-05-17T01:29:31.575Z,89.52
2019-05-17T01:32:02.499Z,89.50
2019-05-17T01:34:33.477Z,89.34
2019-05-17T01:37:06.521Z,89.68
2019-05-17T01:39:37.764Z,89.80
2019-05-17T01:42:09.016Z,89.66
2019-05-17T01:44:40.311Z,89.75
2019-05-17T01:47:10.909Z,89.69
2019-05-17T01:49:41.852Z,89.55
2019-05-17T01:52:16.624Z,89.83
2019-05-17T01:54:47.073Z,89.97
2019-05-17T01:57:17.998Z,89.86
2019-05-17T01:59:48.852Z,89.70
2019-05-17T02:02:21.555Z,89.62
2019-05-17T02:04:53.028Z,89.45
2019-05-17T02:07:23.800Z,89.51
2019-05-17T02:09:56.719Z,90.04
2019-05-17T02:12:27.110Z,89.57
2019-05-17T02:14:58.391Z,90.06
2019-05-17T02:17:29.293Z,89.92
2019-05-17T02:20:00.408Z,89.77
2019-05-17T02:22:31.385Z,89.85
2019-05-17T02:25:03.894Z,90.09
2019-05-17T02:27:40.912Z,89.65
2019-05-17T02:30:09.025Z,89.77
2019-05-17T02:32:43.141Z,90.31
2019-05-17T02:35:14.872Z,90.10
2019-05-17T02:37:45.903Z,90.25
2019-05-17T02:40:17.345Z,89.90
2019-05-17T02:42:48.503Z,89.82
2019-05-17T02:45:19.830Z,89.87
2019-05-17T02:47:53.836Z,89.86
2019-05-17T02:50:26.342Z,89.56
2019-05-17T02:52:57.519Z,89.55
2019-05-17T02:55:28.698Z,89.84
2019-05-17T02:58:02.545Z,89.99
2019-05-17T03:00:33.976Z,89.87
2019-05-17T03:03:06.936Z,89.90
2019-05-17T03:05:43.084Z,89.81
2019-05-17T03:08:13.855Z,89.77
2019-05-17T03:10:44.856Z,89.81
2019-05-17T03:13:18.023Z,89.98
2019-05-17T03:15:52.535Z,89.89
2019-05-17T03:18:23.023Z,90.04
2019-05-17T03:20:57.103Z,89.74
2019-05-17T03:23:28.610Z,89.87
2019-05-17T03:26:05.646Z,89.83
2019-05-17T03:28:37.677Z,89.79
2019-05-17T03:31:17.078Z,89.76
2019-05-17T03:33:46.510Z,89.84
2019-05-17T03:36:25.467Z,90.14
2019-05-17T03:38:55.600Z,90.16
2019-05-17T03:41:29.443Z,89.95
2019-05-17T03:44:03.360Z,89.91
2019-05-17T03:46:34.582Z,89.73
2019-05-17T03:49:05.590Z,89.90
2019-05-17T03:51:36.544Z,89.66
2019-05-17T03:54:07.478Z,89.78
2019-05-17T03:56:38.896Z,89.69
2019-05-17T03:59:12.634Z,89.64
2019-05-17T04:01:43.536Z,89.59
2019-05-17T04:04:15.144Z,89.38
2019-05-17T04:06:46.278Z,89.41
2019-05-17T04:09:17.505Z,89.43
2019-05-17T04:11:48.698Z,89.16
2019-05-17T04:14:22.317Z,89.13
2019-05-17T04:16:53.653Z,88.90
2019-05-17T04:19:25.204Z,88.84
2019-05-17T04:21:56.259Z,88.85
2019-05-17T04:24:28.664Z,88.79
2019-05-17T04:27:03.533Z,88.71
2019-05-17T04:29:34.202Z,88.66
2019-05-17T04:32:05.316Z,88.74
2019-05-17T04:34:38.309Z,89.03
2019-05-17T04:37:09.334Z,89.15
2019-05-17T04:39:42.954Z,89.14
2019-05-17T04:42:14.558Z,88.85
2019-05-17T04:44:45.425Z,88.56
2019-05-17T04:47:16.443Z,88.53
2019-05-17T04:49:48.033Z,88.42
2019-05-17T04:52:22.531Z,88.11
2019-05-17T04:54:53.729Z,88.20
2019-05-17T04:57:25.151Z,88.08
2019-05-17T04:59:56.565Z,88.13
2019-05-17T05:02:27.596Z,88.10
2019-05-17T05:04:58.809Z,88.17
2019-05-17T05:07:29.719Z,88.39
2019-05-17T05:10:02.919Z,88.07
2019-05-17T05:12:33.763Z,88.26
2019-05-17T05:15:05.323Z,87.73
2019-05-17T05:17:36.379Z,87.51
2019-05-17T05:20:12.784Z,87.13
2019-05-17T05:22:43.529Z,86.71
2019-05-17T05:25:16.588Z,86.05
2019-05-17T05:27:48.226Z,85.76
2019-05-17T05:30:22.538Z,85.81
2019-05-17T05:32:54.418Z,85.61
2019-05-17T05:35:25.485Z,85.75
2019-05-17T05:37:56.833Z,85.52
2019-05-17T05:40:27.844Z,85.31
2019-05-17T05:42:58.767Z,85.16
2019-05-17T05:45:31.938Z,85.19
2019-05-17T05:48:02.451Z,85.28
2019-05-17T05:50:33.271Z,84.87
2019-05-17T05:53:04.101Z,84.22
2019-05-17T05:55:34.835Z,84.06
2019-05-17T05:58:05.779Z,83.72
2019-05-17T06:00:36.961Z,83.78
2019-05-17T06:03:07.808Z,83.77
2019-05-17T06:05:38.857Z,83.06
2019-05-17T06:08:12.811Z,82.74
2019-05-17T06:10:43.738Z,82.23
2019-05-17T06:13:14.518Z,81.86
2019-05-17T06:15:45.728Z,81.65
2019-05-17T06:18:17.352Z,82.59
2019-05-17T06:20:48.674Z,81.39
2019-05-17T06:23:19.603Z,81.09
2019-05-17T06:25:52.235Z,80.03
2019-05-17T06:28:22.760Z,80.30
2019-05-17T06:30:53.313Z,80.77
2019-05-17T06:33:30.064Z,80.45
2019-05-17T06:35:56.545Z,80.30
2019-05-17T06:38:27.451Z,81.00
2019-05-17T06:40:58.019Z,81.45
2019-05-17T06:43:28.440Z,80.65
2019-05-17T06:46:01.561Z,79.48
2019-05-17T06:48:33.213Z,79.19
2019-05-17T06:51:03.987Z,79.00
2019-05-17T06:53:34.855Z,78.77
2019-05-17T06:56:05.753Z,79.47
2019-05-17T06:58:36.495Z,79.96
2019-05-17T07:01:09.430Z,79.29
2019-05-17T07:03:39.965Z,79.03
2019-05-17T07:06:12.806Z,78.87
2019-05-17T07:08:43.662Z,79.17
2019-05-17T07:11:14.501Z,79.47
2019-05-17T07:13:45.359Z,78.49
2019-05-17T07:16:19.703Z,78.55
2019-05-17T07:18:50.616Z,77.88
2019-05-17T07:21:21.457Z,78.00
2019-05-17T07:23:52.269Z,77.68
2019-05-17T07:26:23.187Z,76.91
2019-05-17T07:28:55.217Z,77.51
2019-05-17T07:31:26.101Z,77.47
2019-05-17T07:33:56.865Z,76.12
2019-05-17T07:36:27.779Z,76.61
2019-05-17T07:39:00.760Z,75.82
2019-05-17T07:41:31.487Z,76.85
2019-05-17T07:44:02.440Z,77.22
2019-05-17T07:46:33.325Z,75.61
2019-05-17T07:49:10.810Z,75.70
2019-05-17T07:51:42.129Z,75.80
2019-05-17T07:54:12.735Z,75.25
2019-05-17T07:56:43.839Z,75.68
2019-05-17T07:59:14.726Z,75.08
2019-05-17T08:01:45.380Z,75.48
2019-05-17T08:04:16.238Z,74.74
2019-05-17T08:06:47.139Z,75.65
2019-05-17T08:09:20.320Z,75.55
2019-05-17T08:11:50.640Z,75.38
2019-05-17T08:14:30.117Z,75.19
2019-05-17T08:16:53.950Z,75.27
2019-05-17T08:19:24.790Z,75.24
2019-05-17T08:21:55.629Z,75.12
2019-05-17T08:24:27.002Z,73.75
2019-05-17T08:26:59.610Z,74.16
2019-05-17T08:29:30.385Z,73.96
2019-05-17T08:32:01.243Z,73.63
2019-05-17T08:34:32.119Z,74.71
2019-05-17T08:37:03.058Z,74.32
2019-05-17T08:39:33.828Z,73.55
2019-05-17T08:42:04.287Z,73.75
2019-05-17T08:44:35.096Z,73.74
2019-05-17T08:47:05.930Z,73.25
2019-05-17T08:49:36.802Z,73.27
2019-05-17T08:52:09.770Z,74.00
2019-05-17T08:54:42.818Z,71.42
2019-05-17T08:57:12.768Z,71.86
2019-05-17T08:59:43.850Z,70.99
2019-05-17T09:02:19.724Z,71.70
2019-05-17T09:04:46.902Z,71.75
2019-05-17T09:07:20.189Z,72.07
2019-05-17T09:09:50.329Z,72.24
2019-05-17T09:12:21.404Z,72.29
2019-05-17T09:14:52.310Z,72.25
2019-05-17T09:17:23.171Z,71.15
2019-05-17T09:19:54.499Z,70.24
2019-05-17T09:22:25.458Z,69.79
2019-05-17T09:24:56.291Z,68.09
2019-05-17T09:27:27.212Z,68.56
2019-05-17T09:30:00.104Z,69.49
2019-05-17T09:32:30.932Z,68.92
2019-05-17T09:35:01.924Z,68.31
2019-05-17T09:37:32.885Z,68.72
2019-05-17T09:40:03.870Z,68.64
2019-05-17T09:42:35.096Z,68.06
2019-05-17T09:45:09.711Z,67.67
2019-05-17T09:47:40.469Z,66.06
2019-05-17T09:50:11.808Z,65.52
2019-05-17T09:52:42.811Z,65.44
2019-05-17T09:55:13.726Z,64.05
2019-05-17T09:57:44.627Z,64.06
2019-05-17T10:00:17.198Z,63.42
2019-05-17T10:02:50.539Z,64.05
2019-05-17T10:05:20.639Z,64.30
2019-05-17T10:07:51.546Z,64.50
2019-05-17T10:10:22.468Z,64.35
2019-05-17T10:12:53.224Z,62.55
2019-05-17T10:15:23.658Z,63.54
2019-05-17T10:17:54.485Z,63.68
2019-05-17T10:20:25.299Z,64.00
2019-05-17T10:22:55.772Z,64.73
2019-05-17T10:25:26.756Z,65.33
2019-05-17T10:27:57.624Z,65.22
2019-05-17T10:30:29.938Z,65.67
2019-05-17T10:33:00.937Z,65.87
2019-05-17T10:35:31.797Z,66.87
2019-05-17T10:38:02.734Z,65.58
2019-05-17T10:40:35.292Z,65.41
2019-05-17T10:43:06.166Z,64.68
2019-05-17T10:45:40.036Z,64.34
2019-05-17T10:48:10.901Z,64.29
2019-05-17T10:50:41.830Z,63.01
2019-05-17T10:53:12.759Z,63.68
2019-05-17T10:55:43.706Z,62.99
2019-05-17T10:58:14.626Z,63.39
2019-05-17T11:00:45.675Z,63.94
2019-05-17T11:03:16.424Z,63.36
2019-05-17T11:05:47.341Z,63.42
2019-05-17T11:08:19.719Z,63.64
2019-05-17T11:10:50.423Z,62.68
2019-05-17T11:13:21.344Z,62.92
2019-05-17T11:15:52.117Z,62.93
2019-05-17T11:18:22.998Z,62.94
2019-05-17T11:20:54.648Z,62.75
2019-05-17T11:23:35.032Z,63.37
2019-05-17T11:26:00.558Z,63.02
2019-05-17T11:28:31.340Z,62.92
2019-05-17T11:31:01.962Z,62.70
2019-05-17T11:33:33.602Z,62.28
2019-05-17T11:36:04.400Z,62.43
2019-05-17T11:38:41.948Z,62.76
2019-05-17T11:41:20.442Z,62.11
2019-05-17T11:43:40.362Z,62.02
2019-05-17T11:46:11.306Z,62.29
2019-05-17T11:48:42.193Z,62.42
2019-05-17T11:51:13.138Z,61.46
2019-05-17T11:53:44.047Z,61.21
2019-05-17T11:56:14.881Z,60.77
2019-05-17T11:58:45.710Z,61.25
2019-05-17T12:01:16.572Z,60.80
2019-05-17T12:03:47.455Z,60.83
2019-05-17T12:06:17.956Z,59.32
2019-05-17T12:08:49.999Z,59.30
2019-05-17T12:11:21.162Z,59.97
2019-05-17T12:13:52.055Z,58.73
2019-05-17T12:16:22.872Z,58.02
2019-05-17T12:18:53.674Z,58.48
2019-05-17T12:21:24.469Z,58.81
2019-05-17T12:23:55.427Z,58.82
2019-05-17T12:26:25.920Z,58.53
2019-05-17T12:28:56.818Z,57.75
2019-05-17T12:31:27.667Z,57.99
2019-05-17T12:33:58.393Z,58.24
2019-05-17T12:36:29.302Z,58.79
2019-05-17T12:38:59.904Z,57.92
2019-05-17T12:41:30.809Z,58.07
2019-05-17T12:44:01.538Z,57.21
2019-05-17T12:46:32.411Z,57.39
2019-05-17T12:49:03.407Z,57.77
2019-05-17T12:51:33.891Z,57.68
2019-05-17T12:54:04.673Z,56.06
2019-05-17T12:56:35.529Z,57.66
2019-05-17T12:59:06.403Z,57.85
2019-05-17T13:01:37.379Z,58.05
2019-05-17T13:04:08.343Z,58.22
2019-05-17T13:06:38.888Z,58.22
2019-05-17T13:09:09.610Z,58.89
2019-05-17T13:11:40.421Z,58.82
2019-05-17T13:14:11.258Z,58.57
2019-05-17T13:16:42.050Z,58.52
2019-05-17T13:19:12.864Z,58.70
2019-05-17T13:21:43.777Z,59.79
2019-05-17T13:24:14.507Z,59.10
2019-05-17T13:26:45.346Z,59.51
2019-05-17T13:29:16.143Z,58.64
2019-05-17T13:31:46.930Z,58.32
2019-05-17T13:34:17.751Z,58.48
2019-05-17T13:36:48.222Z,57.31
2019-05-17T13:39:19.040Z,57.74
2019-05-17T13:41:51.891Z,57.76
2019-05-17T13:44:22.451Z,57.09
2019-05-17T13:46:53.317Z,58.23
2019-05-17T13:49:24.175Z,57.93
2019-05-17T13:51:55.117Z,58.26
2019-05-17T13:54:26.079Z,58.29
2019-05-17T13:56:56.925Z,57.48
2019-05-17T13:59:27.757Z,57.48
2019-05-17T14:01:58.489Z,57.12
2019-05-17T14:04:29.252Z,57.59
2019-05-17T14:06:59.919Z,58.25
2019-05-17T14:09:30.709Z,57.35
2019-05-17T14:12:02.655Z,57.47
2019-05-17T14:14:33.393Z,57.20
2019-05-17T14:17:04.251Z,57.43
2019-05-17T14:19:36.838Z,56.78
2019-05-17T14:22:07.675Z,56.97
2019-05-17T14:24:38.484Z,56.46
2019-05-17T14:27:09.326Z,56.93
2019-05-17T14:29:43.114Z,56.65
2019-05-17T14:32:14.516Z,56.77
2019-05-17T14:34:47.073Z,57.64
2019-05-17T14:37:17.913Z,57.44
2019-05-17T14:39:48.766Z,57.24
2019-05-17T14:42:19.652Z,56.70
2019-05-17T14:44:50.534Z,57.54
2019-05-17T14:47:21.461Z,56.15
2019-05-17T14:49:53.927Z,55.91
2019-05-17T14:52:26.251Z,56.32
2019-05-17T14:54:57.659Z,55.76
2019-05-17T14:57:28.586Z,56.35
2019-05-17T14:59:59.342Z,55.77
2019-05-17T15:02:33.327Z,55.92
2019-05-17T15:05:05.151Z,55.48
2019-05-17T15:07:37.942Z,55.55
2019-05-17T15:10:09.177Z,55.59
2019-05-17T15:12:40.072Z,56.67
2019-05-17T15:15:11.174Z,56.97
2019-05-17T15:17:42.028Z,57.27
2019-05-17T15:20:12.897Z,57.22
2019-05-17T15:22:43.840Z,57.10
2019-05-17T15:25:14.877Z,57.13
2019-05-17T15:27:51.233Z,57.11
2019-05-17T15:30:22.180Z,57.25
2019-05-17T15:32:56.081Z,57.44
2019-05-17T15:35:26.913Z,57.31
2019-05-17T15:37:57.514Z,57.14
2019-05-17T15:40:28.430Z,57.30
2019-05-17T15:42:59.306Z,57.54
2019-05-17T15:45:30.084Z,57.56
2019-05-17T15:48:00.484Z,57.28
2019-05-17T15:50:30.951Z,56.75
2019-05-17T15:53:01.569Z,56.71
2019-05-17T15:55:32.479Z,56.42
2019-05-17T15:58:03.477Z,56.04
2019-05-17T16:00:34.251Z,56.15
2019-05-17T16:03:05.292Z,56.66
2019-05-17T16:05:36.116Z,56.89
2019-05-17T16:08:06.875Z,56.30
2019-05-17T16:10:37.628Z,56.88
2019-05-17T16:13:08.544Z,55.95
2019-05-17T16:15:41.079Z,56.04
2019-05-17T16:18:11.933Z,55.87
2019-05-17T16:20:42.762Z,54.97
2019-05-17T16:23:13.646Z,55.60
2019-05-17T16:25:44.629Z,56.04
2019-05-17T16:28:15.136Z,55.74
2019-05-17T16:30:46.061Z,56.47
2019-05-17T16:33:18.610Z,57.46
2019-05-17T16:35:50.130Z,58.53
2019-05-17T16:38:20.689Z,58.63
2019-05-17T16:40:51.240Z,58.68
2019-05-17T16:43:22.114Z,58.17
2019-05-17T16:45:54.175Z,57.54
2019-05-17T16:48:24.670Z,57.94
2019-05-17T16:50:58.286Z,58.87
2019-05-17T16:53:29.110Z,58.63
2019-05-17T16:56:00.022Z,58.82
2019-05-17T16:58:32.613Z,58.76
2019-05-17T17:01:03.939Z,58.87
2019-05-17T17:03:43.923Z,59.30
2019-05-17T17:06:10.293Z,59.61
2019-05-17T17:08:40.744Z,60.00
2019-05-17T17:11:11.732Z,59.96
2019-05-17T17:13:42.635Z,59.70
2019-05-17T17:16:13.542Z,60.18
2019-05-17T17:18:44.518Z,60.07
2019-05-17T17:21:15.014Z,59.67
2019-05-17T17:23:45.853Z,59.62
2019-05-17T17:26:16.858Z,59.70
2019-05-17T17:28:47.780Z,59.81
2019-05-17T17:31:18.931Z,59.49
2019-05-17T17:33:49.745Z,60.09
2019-05-17T17:36:20.541Z,60.39
2019-05-17T17:38:51.416Z,60.37
2019-05-17T17:41:22.038Z,60.42
2019-05-17T17:43:58.582Z,60.24
2019-05-17T17:46:25.363Z,60.67
2019-05-17T17:48:56.218Z,60.94
2019-05-17T17:51:27.081Z,60.93
2019-05-17T17:53:57.880Z,61.80
2019-05-17T17:56:28.724Z,61.65
2019-05-17T17:58:59.532Z,62.34
2019-05-17T18:01:30.289Z,63.05
2019-05-17T18:04:00.995Z,63.38
2019-05-17T18:06:31.889Z,63.69
2019-05-17T18:09:03.557Z,63.72
2019-05-17T18:11:34.310Z,63.41
2019-05-17T18:14:12.810Z,63.47
2019-05-17T18:16:37.724Z,63.61
2019-05-17T18:19:08.713Z,64.17
2019-05-17T18:21:39.618Z,63.98
2019-05-17T18:24:10.263Z,64.20
2019-05-17T18:26:41.113Z,64.28
2019-05-17T18:29:12.036Z,65.09
2019-05-17T18:31:42.622Z,65.21
2019-05-17T18:34:13.512Z,65.60
2019-05-17T18:36:44.342Z,65.89
2019-05-17T18:39:15.162Z,66.77
2019-05-17T18:41:45.900Z,66.98
2019-05-17T18:44:27.155Z,67.43
2019-05-17T18:46:49.258Z,67.37
2019-05-17T18:49:20.192Z,67.14
2019-05-17T18:51:50.721Z,67.45
2019-05-17T18:54:21.771Z,67.67
2019-05-17T18:56:52.664Z,67.90
2019-05-17T18:59:25.043Z,68.28
2019-05-17T19:01:55.906Z,68.38
2019-05-17T19:04:26.720Z,68.60
2019-05-17T19:06:57.565Z,68.62
2019-05-17T19:09:28.380Z,69.29
2019-05-17T19:11:59.233Z,69.19
2019-05-17T19:14:42.170Z,69.32
2019-05-17T19:17:02.274Z,69.26
2019-05-17T19:19:33.106Z,69.54
2019-05-17T19:22:03.931Z,69.72
2019-05-17T19:24:35.022Z,69.59
2019-05-17T19:27:05.911Z,69.66
2019-05-17T19:29:36.802Z,69.86
2019-05-17T19:32:07.702Z,69.95
2019-05-17T19:34:38.494Z,69.33
2019-05-17T19:37:09.458Z,69.40
2019-05-17T19:39:40.363Z,69.42
2019-05-17T19:42:11.198Z,68.93
2019-05-17T19:44:41.787Z,69.00
2019-05-17T19:47:12.673Z,68.85
2019-05-17T19:49:43.093Z,68.99
2019-05-17T19:52:13.859Z,69.34
2019-05-17T19:54:44.805Z,69.71
2019-05-17T19:57:20.926Z,69.87
2019-05-17T19:59:53.240Z,70.02
2019-05-17T20:02:25.596Z,70.62
2019-05-17T20:04:56.409Z,70.44
2019-05-17T20:07:28.027Z,70.81
2019-05-17T20:09:59.792Z,70.63
2019-05-17T20:12:30.610Z,71.09
2019-05-17T20:15:16.149Z,70.89
2019-05-17T20:17:33.767Z,71.18
2019-05-17T20:20:06.895Z,71.22
2019-05-17T20:22:38.124Z,71.02
2019-05-17T20:25:09.596Z,71.34
2019-05-17T20:27:40.226Z,71.21
2019-05-17T20:30:11.727Z,71.60
2019-05-17T20:32:42.265Z,71.35
2019-05-17T20:35:13.824Z,71.89
2019-05-17T20:37:46.437Z,71.53
2019-05-17T20:40:17.943Z,71.38
2019-05-17T20:42:48.930Z,71.69
2019-05-17T20:45:32.067Z,71.53
2019-05-17T20:47:51.678Z,71.63
2019-05-17T20:50:22.666Z,71.58
2019-05-17T20:52:53.552Z,71.50
2019-05-17T20:55:27.245Z,71.65
2019-05-17T20:57:57.220Z,71.95
2019-05-17T21:00:28.051Z,71.60
2019-05-17T21:02:58.768Z,71.67
2019-05-17T21:05:29.689Z,71.44
2019-05-17T21:08:00.361Z,71.13
2019-05-17T21:10:30.938Z,71.27
2019-05-17T21:13:01.836Z,71.37
2019-05-17T21:15:45.716Z,71.66
2019-05-17T21:18:05.277Z,71.83
2019-05-17T21:20:36.207Z,71.68
2019-05-17T21:23:07.129Z,71.98
2019-05-17T21:25:38.071Z,72.22
2019-05-17T21:28:09.029Z,72.46
2019-05-17T21:30:40.015Z,71.67
2019-05-17T21:33:12.465Z,72.32
2019-05-17T21:35:43.365Z,72.19
2019-05-17T21:38:14.531Z,72.06
2019-05-17T21:40:45.433Z,72.12
2019-05-17T21:43:16.348Z,72.13
2019-05-17T21:46:01.079Z,72.10
2019-05-17T21:48:20.294Z,72.36
2019-05-17T21:50:51.151Z,72.36
2019-05-17T21:53:22.192Z,72.48
2019-05-17T21:55:53.008Z,72.63
2019-05-17T21:58:23.885Z,72.82
2019-05-17T22:01:03.741Z,73.06
2019-05-17T22:03:34.495Z,73.06
2019-05-17T22:06:05.462Z,73.16
2019-05-17T22:08:36.387Z,73.16
2019-05-17T22:11:07.253Z,73.08
2019-05-17T22:13:37.705Z,73.31
2019-05-17T22:16:19.285Z,73.39
2019-05-17T22:18:41.131Z,73.59
2019-05-17T22:21:11.658Z,73.85
2019-05-17T22:23:42.163Z,73.76
2019-05-17T22:26:12.970Z,73.81
2019-05-17T22:28:43.412Z,73.79
2019-05-17T22:31:14.219Z,73.92
2019-05-17T22:33:44.716Z,74.22
2019-05-17T22:36:15.654Z,74.17
2019-05-17T22:38:46.704Z,74.27
2019-05-17T22:41:17.521Z,74.32
2019-05-17T22:43:48.420Z,74.43
2019-05-17T22:46:34.736Z,74.52
2019-05-17T22:48:51.573Z,74.93
2019-05-17T22:51:22.501Z,74.81
2019-05-17T22:53:53.230Z,74.81
2019-05-17T22:56:24.033Z,74.97
2019-05-17T22:58:54.783Z,75.05
2019-05-17T23:01:25.667Z,75.39
2019-05-17T23:03:56.388Z,75.17
2019-05-17T23:06:27.187Z,75.42
2019-05-17T23:08:57.706Z,75.87
2019-05-17T23:11:28.441Z,75.72
2019-05-17T23:13:59.171Z,75.97
2019-05-17T23:16:30.030Z,75.69
2019-05-17T23:19:10.772Z,75.91
2019-05-17T23:21:41.822Z,75.84
2019-05-17T23:24:12.671Z,75.83
2019-05-17T23:26:43.387Z,76.19
2019-05-17T23:29:14.238Z,76.16
2019-05-17T23:31:45.080Z,76.52
2019-05-17T23:34:16.005Z,76.28
2019-05-17T23:36:46.488Z,76.26
2019-05-17T23:39:17.180Z,76.54
2019-05-17T23:41:48.108Z,76.62
2019-05-17T23:44:18.852Z,76.90
2019-05-17T23:46:49.672Z,76.93
2019-05-17T23:49:20.408Z,77.13
2019-05-17T23:51:51.152Z,76.68
2019-05-17T23:54:22.013Z,77.12
2019-05-17T23:56:52.481Z,77.27
2019-05-17T23:59:23.246Z,77.05
